createdAt,value
2022-07-26T00:01:31.717Z,99.90
2022-07-26T00:03:59.817Z,99.90
2022-07-26T00:06:26.658Z,99.90
2022-07-26T00:08:53.462Z,99.90
2022-07-26T00:11:21.788Z,99.90
2022-07-26T00:13:48.675Z,99.90
2022-07-26T00:16:15.494Z,99.90
2022-07-26T00:18:42.455Z,99.90
2022-07-26T00:21:09.100Z,99.90
2022-07-26T00:23:38.678Z,99.90
2022-07-26T00:26:05.298Z,99.90
2022-07-26T00:28:31.917Z,99.90
2022-07-26T00:30:58.536Z,99.90
2022-07-26T00:33:25.233Z,99.90
2022-07-26T00:35:51.846Z,99.90
2022-07-26T00:38:18.468Z,99.90
2022-07-26T00:40:45.175Z,99.90
2022-07-26T00:43:11.826Z,99.90
2022-07-26T00:45:38.639Z,99.90
2022-07-26T00:48:05.809Z,99.90
2022-07-26T00:50:32.616Z,99.90
2022-07-26T00:53:00.246Z,99.90
2022-07-26T00:55:27.712Z,99.90
2022-07-26T00:57:54.524Z,99.90
2022-07-26T01:00:27.747Z,99.90
2022-07-26T01:03:00.316Z,99.90
2022-07-26T01:05:27.616Z,99.90
2022-07-26T01:07:54.914Z,99.90
2022-07-26T01:10:21.594Z,99.90
2022-07-26T01:12:48.277Z,99.90
2022-07-26T01:15:16.413Z,99.90
2022-07-26T01:17:44.134Z,99.90
2022-07-26T01:20:12.695Z,99.90
2022-07-26T01:22:39.563Z,99.90
2022-07-26T01:25:07.124Z,99.90
2022-07-26T01:27:39.332Z,99.90
2022-07-26T01:30:09.440Z,99.90
2022-07-26T01:32:36.450Z,99.90
2022-07-26T01:35:04.634Z,99.90
2022-07-26T01:37:31.329Z,99.90
2022-07-26T01:39:58.020Z,99.90
2022-07-26T01:42:25.106Z,99.90
2022-07-26T01:44:51.780Z,99.90
2022-07-26T01:47:18.572Z,99.90
2022-07-26T01:49:45.334Z,99.90
2022-07-26T01:52:12.059Z,99.90
2022-07-26T01:54:38.795Z,99.90
2022-07-26T01:57:05.492Z,99.90
2022-07-26T01:59:32.124Z,99.90
2022-07-26T02:01:58.830Z,99.90
2022-07-26T02:04:44.022Z,99.90
2022-07-26T02:07:13.040Z,99.90
2022-07-26T02:09:40.429Z,99.90
2022-07-26T02:12:07.845Z,99.90
2022-07-26T02:14:34.538Z,99.90
2022-07-26T02:17:01.382Z,99.90
2022-07-26T02:19:28.866Z,99.90
2022-07-26T02:21:55.652Z,99.90
2022-07-26T02:24:22.964Z,99.90
2022-07-26T02:26:49.605Z,99.90
2022-07-26T02:29:16.233Z,99.90
2022-07-26T02:31:42.881Z,99.90
2022-07-26T02:34:15.415Z,99.90
2022-07-26T02:36:42.112Z,99.90
2022-07-26T02:39:08.879Z,99.90
2022-07-26T02:41:35.564Z,99.90
2022-07-26T02:44:02.183Z,99.90
2022-07-26T02:46:28.903Z,99.90
2022-07-26T02:48:55.625Z,99.90
2022-07-26T02:51:22.364Z,99.90
2022-07-26T02:53:49.079Z,99.90
2022-07-26T02:56:15.704Z,99.90
2022-07-26T02:58:42.364Z,99.90
2022-07-26T03:01:09.132Z,99.90
2022-07-26T03:03:36.554Z,99.90
2022-07-26T03:06:03.689Z,99.90
2022-07-26T03:08:31.156Z,99.90
2022-07-26T03:10:57.828Z,99.90
2022-07-26T03:13:24.437Z,99.90
2022-07-26T03:15:51.207Z,99.90
2022-07-26T03:18:17.871Z,99.90
2022-07-26T03:20:44.591Z,99.90
2022-07-26T03:23:11.223Z,99.90
2022-07-26T03:25:38.435Z,99.90
2022-07-26T03:28:05.334Z,99.90
2022-07-26T03:30:32.094Z,99.90
2022-07-26T03:32:59.082Z,99.90
2022-07-26T03:35:25.901Z,99.90
2022-07-26T03:37:52.734Z,99.90
2022-07-26T03:40:20.012Z,99.90
2022-07-26T03:42:48.027Z,99.90
2022-07-26T03:45:15.901Z,99.90
2022-07-26T03:47:42.882Z,99.90
2022-07-26T03:50:10.855Z,99.90
2022-07-26T03:52:37.711Z,99.90
2022-07-26T03:55:24.732Z,99.90
2022-07-26T03:57:51.548Z,99.90
2022-07-26T04:00:18.260Z,99.90
2022-07-26T04:02:45.080Z,99.90
2022-07-26T04:05:11.766Z,99.90
2022-07-26T04:07:52.619Z,99.90
2022-07-26T04:10:20.393Z,99.90
2022-07-26T04:12:47.119Z,99.90
2022-07-26T04:15:16.056Z,99.90
2022-07-26T04:17:43.161Z,99.90
2022-07-26T04:20:11.427Z,99.90
2022-07-26T04:22:39.405Z,99.90
2022-07-26T04:25:07.579Z,99.90
2022-07-26T04:27:34.726Z,99.90
2022-07-26T04:30:01.609Z,99.90
2022-07-26T04:32:28.353Z,99.90
2022-07-26T04:34:55.034Z,99.90
2022-07-26T04:37:21.628Z,99.90
2022-07-26T04:39:51.725Z,99.90
2022-07-26T04:42:21.526Z,99.90
2022-07-26T04:44:48.190Z,99.90
2022-07-26T04:47:14.898Z,99.90
2022-07-26T04:49:42.188Z,99.90
2022-07-26T04:52:08.811Z,99.90
2022-07-26T04:54:35.528Z,99.90
2022-07-26T04:57:02.175Z,99.90
2022-07-26T04:59:28.917Z,99.90
2022-07-26T05:02:00.105Z,99.90
2022-07-26T05:04:27.185Z,99.90
2022-07-26T05:06:53.848Z,99.90
2022-07-26T05:09:20.486Z,99.90
2022-07-26T05:11:47.203Z,99.90
2022-07-26T05:14:13.804Z,99.90
2022-07-26T05:16:44.262Z,99.90
2022-07-26T05:19:11.623Z,99.90
2022-07-26T05:21:38.695Z,99.90
2022-07-26T05:24:07.939Z,99.90
2022-07-26T05:26:35.127Z,99.90
2022-07-26T05:29:02.105Z,99.90
2022-07-26T05:31:28.815Z,99.90
2022-07-26T05:33:55.614Z,99.90
2022-07-26T05:36:22.256Z,99.90
2022-07-26T05:38:48.875Z,99.90
2022-07-26T05:41:15.547Z,99.90
2022-07-26T05:43:42.385Z,99.90
2022-07-26T05:46:10.834Z,99.90
2022-07-26T05:48:38.635Z,99.90
2022-07-26T05:51:05.479Z,99.90
2022-07-26T05:53:32.098Z,99.90
2022-07-26T05:55:58.761Z,99.90
2022-07-26T05:58:25.488Z,99.90
2022-07-26T06:00:53.480Z,99.90
2022-07-26T06:03:22.933Z,99.90
2022-07-26T06:05:51.218Z,99.90
2022-07-26T06:08:18.931Z,99.90
2022-07-26T06:10:47.125Z,99.90
2022-07-26T06:13:13.917Z,99.90
2022-07-26T06:15:40.640Z,99.90
2022-07-26T06:18:07.299Z,99.90
2022-07-26T06:20:34.518Z,99.90
2022-07-26T06:23:01.186Z,99.90
2022-07-26T06:25:27.955Z,99.90
2022-07-26T06:27:54.625Z,99.90
2022-07-26T06:30:21.258Z,99.90
2022-07-26T06:32:47.997Z,99.90
2022-07-26T06:35:15.064Z,99.90
2022-07-26T06:37:42.902Z,99.90
2022-07-26T06:40:11.903Z,99.90
2022-07-26T06:42:38.746Z,99.90
2022-07-26T06:45:06.414Z,99.90
2022-07-26T06:47:33.788Z,99.90
2022-07-26T06:50:00.536Z,99.90
2022-07-26T06:52:27.207Z,99.90
2022-07-26T06:54:53.888Z,99.90
2022-07-26T06:57:20.539Z,99.90
2022-07-26T06:59:47.139Z,99.90
2022-07-26T07:02:13.829Z,99.90
2022-07-26T07:04:40.590Z,99.90
2022-07-26T07:07:08.369Z,99.90
2022-07-26T07:09:36.025Z,99.90
2022-07-26T07:12:09.648Z,99.90
2022-07-26T07:14:37.112Z,99.90
2022-07-26T07:17:04.040Z,99.90
2022-07-26T07:19:38.677Z,99.90
2022-07-26T07:22:05.971Z,99.90
2022-07-26T07:24:32.791Z,99.90
2022-07-26T07:27:02.542Z,99.90
2022-07-26T07:29:29.308Z,99.90
2022-07-26T07:31:56.509Z,99.90
2022-07-26T07:34:24.009Z,99.90
2022-07-26T07:36:52.268Z,99.90
2022-07-26T07:39:19.219Z,99.90
2022-07-26T07:41:47.797Z,99.90
2022-07-26T07:44:14.628Z,99.90
2022-07-26T07:46:41.351Z,99.90
2022-07-26T07:49:08.756Z,99.90
2022-07-26T07:51:36.492Z,99.90
2022-07-26T07:54:05.864Z,99.90
2022-07-26T07:56:33.053Z,99.90
2022-07-26T07:58:59.883Z,99.90
2022-07-26T08:01:40.619Z,99.90
2022-07-26T08:04:09.053Z,99.90
2022-07-26T08:06:36.296Z,99.90
2022-07-26T08:09:03.720Z,99.90
2022-07-26T08:11:30.753Z,99.90
2022-07-26T08:14:00.577Z,99.90
2022-07-26T08:16:27.286Z,99.90
2022-07-26T08:18:57.986Z,99.90
2022-07-26T08:21:27.505Z,99.90
2022-07-26T08:23:56.004Z,99.90
2022-07-26T08:26:22.663Z,99.90
2022-07-26T08:28:49.446Z,99.90
2022-07-26T08:31:27.304Z,99.90
2022-07-26T08:33:54.041Z,99.90
2022-07-26T08:36:20.683Z,99.90
2022-07-26T08:38:48.339Z,99.90
2022-07-26T08:41:16.914Z,99.90
2022-07-26T08:43:51.141Z,99.90
2022-07-26T08:46:24.155Z,99.90
2022-07-26T08:48:51.861Z,99.90
2022-07-26T08:51:22.850Z,99.90
2022-07-26T08:53:50.473Z,99.90
2022-07-26T08:56:17.192Z,99.90
2022-07-26T08:58:43.936Z,99.90
2022-07-26T09:01:12.979Z,99.90
2022-07-26T09:03:40.641Z,99.90
2022-07-26T09:06:22.417Z,99.90
2022-07-26T09:08:53.526Z,99.90
2022-07-26T09:11:26.318Z,99.90
2022-07-26T09:14:01.205Z,99.90
2022-07-26T09:16:29.133Z,99.90
2022-07-26T09:19:07.496Z,99.90
2022-07-26T09:21:38.831Z,99.90
2022-07-26T09:24:05.935Z,99.90
2022-07-26T09:26:33.066Z,99.90
2022-07-26T09:29:12.352Z,99.90
2022-07-26T09:31:39.879Z,99.90
2022-07-26T09:34:07.773Z,99.90
2022-07-26T09:36:50.520Z,99.90
2022-07-26T09:39:17.293Z,99.90
2022-07-26T09:42:04.757Z,99.90
2022-07-26T09:44:47.789Z,99.90
2022-07-26T09:47:15.183Z,99.90
2022-07-26T09:49:43.735Z,99.90
2022-07-26T09:52:21.333Z,99.90
2022-07-26T09:54:49.501Z,99.90
2022-07-26T09:57:18.531Z,99.90
2022-07-26T09:59:46.229Z,99.90
2022-07-26T10:02:14.127Z,99.90
2022-07-26T10:04:42.312Z,99.90
2022-07-26T10:07:10.427Z,99.90
2022-07-26T10:09:53.021Z,99.90
2022-07-26T10:12:21.165Z,99.90
2022-07-26T10:14:51.691Z,99.90
2022-07-26T10:17:31.677Z,99.90
2022-07-26T10:20:17.062Z,99.90
2022-07-26T10:22:50.497Z,99.90
2022-07-26T10:25:17.234Z,99.90
2022-07-26T10:27:48.899Z,99.90
2022-07-26T10:30:27.762Z,99.90
2022-07-26T10:33:01.823Z,99.90
2022-07-26T10:35:34.375Z,99.90
2022-07-26T10:38:09.430Z,99.90
2022-07-26T10:40:37.865Z,99.90
2022-07-26T10:46:19.114Z,99.90
2022-07-26T10:49:04.106Z,99.90
2022-07-26T10:51:34.432Z,99.90
2022-07-26T10:54:09.812Z,99.90
2022-07-26T10:56:37.517Z,99.90
2022-07-26T10:59:05.730Z,99.90
2022-07-26T11:01:40.961Z,99.90
2022-07-26T11:04:22.267Z,99.90
2022-07-26T11:06:49.635Z,99.90
2022-07-26T11:09:18.437Z,99.90
2022-07-26T11:11:48.679Z,99.90
2022-07-26T11:14:17.620Z,99.90
2022-07-26T11:16:47.547Z,99.90
2022-07-26T11:19:25.144Z,99.90
2022-07-26T11:21:58.499Z,99.90
2022-07-26T11:24:26.703Z,99.90
2022-07-26T11:26:53.941Z,99.90
2022-07-26T11:29:37.892Z,99.90
2022-07-26T11:32:17.799Z,99.90
2022-07-26T11:34:46.547Z,99.90
2022-07-26T11:37:14.123Z,99.90
2022-07-26T11:39:40.994Z,99.90
2022-07-26T11:42:13.233Z,99.90
2022-07-26T11:44:44.738Z,99.90
2022-07-26T11:47:14.032Z,99.90
2022-07-26T11:49:52.802Z,99.90
2022-07-26T11:52:32.275Z,99.90
2022-07-26T11:54:59.485Z,99.90
2022-07-26T11:57:31.203Z,99.90
2022-07-26T11:59:59.532Z,99.90
2022-07-26T12:02:27.952Z,99.90
2022-07-26T12:05:13.849Z,99.90
2022-07-26T12:07:56.606Z,99.90
2022-07-26T12:10:24.285Z,99.90
2022-07-26T12:13:05.540Z,99.90
2022-07-26T12:15:44.548Z,99.90
2022-07-26T12:18:11.295Z,99.90
2022-07-26T12:20:37.938Z,99.90
2022-07-26T12:23:06.033Z,99.10
2022-07-26T12:25:32.878Z,98.80
2022-07-26T12:27:59.511Z,99.10
2022-07-26T12:30:30.878Z,99.80
2022-07-26T12:33:02.078Z,99.90
2022-07-26T12:35:33.412Z,99.10
2022-07-26T12:38:00.319Z,97.80
2022-07-26T12:40:29.250Z,98.90
2022-07-26T12:43:01.136Z,99.30
2022-07-26T12:45:31.859Z,99.30
2022-07-26T12:48:00.733Z,98.90
2022-07-26T12:50:29.225Z,98.70
2022-07-26T12:53:04.855Z,98.50
2022-07-26T12:55:31.785Z,97.50
2022-07-26T12:57:59.364Z,96.80
2022-07-26T13:00:26.588Z,96.70
2022-07-26T13:02:55.801Z,97.70
2022-07-26T13:05:23.203Z,98.30
2022-07-26T13:07:52.491Z,99.40
2022-07-26T13:10:33.209Z,99.70
2022-07-26T13:13:01.335Z,99.90
2022-07-26T13:15:36.604Z,99.90
2022-07-26T13:18:07.748Z,99.90
2022-07-26T13:20:36.651Z,99.90
2022-07-26T13:23:03.460Z,99.90
2022-07-26T13:25:35.071Z,99.90
2022-07-26T13:28:07.030Z,99.90
2022-07-26T13:30:33.777Z,99.40
2022-07-26T13:33:00.532Z,99.70
2022-07-26T13:35:27.265Z,99.90
2022-07-26T13:37:53.912Z,99.90
2022-07-26T13:40:20.555Z,99.90
2022-07-26T13:42:49.946Z,99.90
2022-07-26T13:45:16.973Z,99.90
2022-07-26T13:47:43.738Z,99.90
2022-07-26T13:50:10.711Z,99.90
2022-07-26T13:52:37.544Z,99.80
2022-07-26T13:55:04.649Z,99.50
2022-07-26T13:57:47.987Z,99.10
2022-07-26T14:00:21.375Z,98.20
2022-07-26T14:02:48.152Z,97.50
2022-07-26T14:05:14.944Z,97.50
2022-07-26T14:07:42.742Z,97.00
2022-07-26T14:10:10.790Z,96.40
2022-07-26T14:12:38.167Z,96.50
2022-07-26T14:15:11.478Z,96.40
2022-07-26T14:17:38.951Z,95.90
2022-07-26T14:20:06.306Z,95.30
2022-07-26T14:22:33.300Z,95.50
2022-07-26T14:25:00.113Z,95.00
2022-07-26T14:27:26.914Z,94.70
2022-07-26T14:29:53.800Z,94.60
2022-07-26T14:32:22.191Z,93.60
2022-07-26T14:34:49.640Z,93.70
2022-07-26T14:37:42.663Z,93.00
2022-07-26T14:40:05.866Z,93.10
2022-07-26T14:42:32.808Z,93.20
2022-07-26T14:44:59.851Z,92.60
2022-07-26T14:47:26.537Z,92.30
2022-07-26T14:49:53.331Z,91.10
2022-07-26T14:52:20.073Z,90.60
2022-07-26T14:54:46.839Z,90.50
2022-07-26T14:57:13.460Z,89.30
2022-07-26T14:59:40.095Z,88.00
2022-07-26T15:02:06.823Z,86.20
2022-07-26T15:04:33.584Z,87.80
2022-07-26T15:07:00.269Z,88.10
2022-07-26T15:09:26.955Z,87.10
2022-07-26T15:11:53.693Z,87.60
2022-07-26T15:14:20.447Z,86.50
2022-07-26T15:16:47.211Z,82.30
2022-07-26T15:19:13.985Z,82.30
2022-07-26T15:21:40.627Z,81.10
2022-07-26T15:24:09.663Z,80.60
2022-07-26T15:26:36.520Z,78.00
2022-07-26T15:29:03.200Z,78.10
2022-07-26T15:31:37.434Z,78.10
2022-07-26T15:34:07.484Z,75.70
2022-07-26T15:36:34.858Z,76.40
2022-07-26T15:39:14.716Z,78.60
2022-07-26T15:41:43.151Z,78.30
2022-07-26T15:44:11.501Z,77.50
2022-07-26T15:46:39.026Z,78.50
2022-07-26T15:49:07.434Z,79.30
2022-07-26T15:51:34.543Z,79.60
2022-07-26T15:54:02.749Z,79.00
2022-07-26T15:56:29.467Z,79.00
2022-07-26T15:58:56.210Z,78.40
2022-07-26T16:01:23.038Z,78.70
2022-07-26T16:03:49.803Z,78.60
2022-07-26T16:06:16.445Z,78.80
2022-07-26T16:09:05.921Z,78.80
2022-07-26T16:11:30.856Z,78.40
2022-07-26T16:14:01.094Z,79.20
2022-07-26T16:16:29.997Z,79.80
2022-07-26T16:18:57.470Z,79.30
2022-07-26T16:21:24.784Z,79.90
2022-07-26T16:23:51.547Z,80.90
2022-07-26T16:26:18.910Z,81.90
2022-07-26T16:28:45.693Z,83.40
2022-07-26T16:31:12.633Z,84.90
2022-07-26T16:33:45.965Z,86.50
2022-07-26T16:36:14.803Z,86.60
2022-07-26T16:38:41.539Z,86.50
2022-07-26T16:41:08.340Z,86.10
2022-07-26T16:43:35.467Z,85.40
2022-07-26T16:46:02.962Z,85.10
2022-07-26T16:48:29.751Z,84.60
2022-07-26T16:50:56.733Z,84.60
2022-07-26T16:53:23.770Z,83.70
2022-07-26T16:55:51.939Z,82.40
2022-07-26T16:58:19.462Z,81.10
2022-07-26T17:00:46.965Z,80.10
2022-07-26T17:03:15.717Z,79.50
2022-07-26T17:05:44.526Z,78.80
2022-07-26T17:08:11.250Z,78.40
2022-07-26T17:10:38.437Z,79.10
2022-07-26T17:13:05.231Z,80.60
2022-07-26T17:15:31.946Z,81.30
2022-07-26T17:17:58.931Z,80.70
2022-07-26T17:20:25.750Z,80.10
2022-07-26T17:22:52.613Z,80.60
2022-07-26T17:25:19.766Z,81.60
2022-07-26T17:27:47.818Z,82.50
2022-07-26T17:30:14.659Z,83.00
2022-07-26T17:32:41.699Z,83.10
2022-07-26T17:35:09.103Z,83.70
2022-07-26T17:37:36.139Z,84.00
2022-07-26T17:40:07.791Z,83.60
2022-07-26T17:42:35.069Z,84.80
2022-07-26T17:45:02.073Z,84.50
2022-07-26T17:47:30.479Z,84.00
2022-07-26T17:52:50.806Z,85.90
2022-07-26T17:55:18.852Z,87.10
2022-07-26T17:57:46.370Z,88.00
2022-07-26T18:00:13.764Z,88.00
2022-07-26T18:02:40.756Z,88.50
2022-07-26T18:05:07.770Z,88.10
2022-07-26T18:07:34.520Z,88.00
2022-07-26T18:10:01.327Z,88.30
2022-07-26T18:12:28.356Z,89.10
2022-07-26T18:14:55.082Z,89.70
2022-07-26T18:17:22.056Z,89.70
2022-07-26T18:19:48.768Z,89.80
2022-07-26T18:22:15.572Z,89.80
2022-07-26T18:24:42.628Z,90.00
2022-07-26T18:27:09.490Z,90.30
2022-07-26T18:29:36.144Z,90.90
2022-07-26T18:32:02.817Z,91.40
2022-07-26T18:34:29.910Z,91.60
2022-07-26T18:36:56.714Z,92.00
2022-07-26T18:39:23.414Z,92.00
2022-07-26T18:41:50.323Z,92.10
2022-07-26T18:44:18.336Z,92.30
2022-07-26T18:46:45.247Z,92.50
2022-07-26T18:49:16.117Z,92.50
2022-07-26T18:51:48.508Z,92.60
2022-07-26T18:54:15.908Z,92.60
2022-07-26T18:56:42.790Z,92.70
2022-07-26T18:59:10.025Z,92.60
2022-07-26T19:01:37.297Z,93.00
2022-07-26T19:04:07.032Z,93.10
2022-07-26T19:06:35.344Z,93.00
2022-07-26T19:09:02.050Z,92.90
2022-07-26T19:11:30.127Z,93.00
2022-07-26T19:13:56.841Z,93.00
2022-07-26T19:16:23.680Z,93.10
2022-07-26T19:18:55.332Z,93.10
2022-07-26T19:21:25.047Z,92.90
2022-07-26T19:23:51.881Z,93.10
2022-07-26T19:26:18.907Z,93.10
2022-07-26T19:28:45.777Z,93.10
2022-07-26T19:31:12.491Z,92.90
2022-07-26T19:33:39.210Z,92.90
2022-07-26T19:36:06.124Z,93.30
2022-07-26T19:38:33.171Z,93.40
2022-07-26T19:41:01.019Z,93.70
2022-07-26T19:43:28.095Z,94.00
2022-07-26T19:45:55.013Z,94.10
2022-07-26T19:48:21.747Z,94.30
2022-07-26T19:50:48.712Z,94.40
2022-07-26T19:53:15.516Z,94.30
2022-07-26T19:55:42.518Z,94.20
2022-07-26T19:58:09.679Z,94.10
2022-07-26T20:00:36.443Z,94.30
2022-07-26T20:03:03.682Z,94.20
2022-07-26T20:05:30.566Z,94.30
2022-07-26T20:07:57.996Z,94.60
2022-07-26T20:10:29.992Z,94.50
2022-07-26T20:12:58.583Z,94.60
2022-07-26T20:15:26.013Z,94.60
2022-07-26T20:17:52.683Z,94.60
2022-07-26T20:20:20.002Z,94.80
2022-07-26T20:22:46.625Z,94.80
2022-07-26T20:25:15.809Z,94.90
2022-07-26T20:27:49.742Z,95.10
2022-07-26T20:30:16.811Z,95.40
2022-07-26T20:32:44.195Z,95.60
2022-07-26T20:35:10.979Z,95.80
2022-07-26T20:37:37.907Z,95.90
2022-07-26T20:40:05.150Z,95.90
2022-07-26T20:42:35.017Z,96.10
2022-07-26T20:45:02.092Z,96.20
2022-07-26T20:47:28.867Z,96.20
2022-07-26T20:49:59.672Z,96.40
2022-07-26T20:52:29.629Z,96.10
2022-07-26T20:54:56.317Z,96.40
2022-07-26T20:57:23.519Z,96.60
2022-07-26T20:59:50.406Z,96.80
2022-07-26T21:02:17.257Z,97.00
2022-07-26T21:04:45.032Z,96.70
2022-07-26T21:07:11.857Z,96.70
2022-07-26T21:09:38.600Z,96.90
2022-07-26T21:12:05.723Z,97.00
2022-07-26T21:14:32.459Z,97.10
2022-07-26T21:16:59.575Z,97.20
2022-07-26T21:19:26.391Z,97.50
2022-07-26T21:21:54.614Z,97.70
2022-07-26T21:24:21.409Z,97.90
2022-07-26T21:26:48.170Z,97.90
2022-07-26T21:29:15.281Z,97.90
2022-07-26T21:31:42.207Z,97.90
2022-07-26T21:34:10.158Z,97.70
2022-07-26T21:36:40.206Z,97.80
2022-07-26T21:39:07.894Z,97.70
2022-07-26T21:41:35.261Z,97.50
2022-07-26T21:44:02.774Z,97.80
2022-07-26T21:46:29.729Z,97.70
2022-07-26T21:48:56.583Z,98.00
2022-07-26T21:51:23.308Z,97.40
2022-07-26T21:53:49.963Z,97.40
2022-07-26T21:56:16.606Z,97.20
2022-07-26T21:58:43.231Z,97.30
2022-07-26T22:01:12.406Z,97.30
2022-07-26T22:03:40.472Z,97.70
2022-07-26T22:06:07.706Z,97.70
2022-07-26T22:08:34.844Z,97.90
2022-07-26T22:11:01.832Z,98.00
2022-07-26T22:13:28.435Z,98.40
2022-07-26T22:15:55.063Z,98.50
2022-07-26T22:18:21.789Z,98.60
2022-07-26T22:20:49.801Z,98.60
2022-07-26T22:23:17.876Z,98.80
2022-07-26T22:25:45.331Z,98.80
2022-07-26T22:28:17.940Z,98.80
2022-07-26T22:30:46.046Z,99.00
2022-07-26T22:33:12.859Z,99.20
2022-07-26T22:35:39.758Z,99.30
2022-07-26T22:38:09.847Z,99.30
2022-07-26T22:40:37.764Z,99.70
2022-07-26T22:43:05.696Z,99.40
2022-07-26T22:45:32.626Z,99.50
2022-07-26T22:48:01.151Z,99.50
2022-07-26T22:50:27.914Z,99.90
2022-07-26T22:52:55.305Z,99.90
2022-07-26T22:55:22.382Z,99.90
2022-07-26T22:57:49.564Z,99.90
2022-07-26T23:00:18.403Z,99.90
2022-07-26T23:02:45.551Z,99.90
2022-07-26T23:05:14.505Z,99.90
2022-07-26T23:07:41.887Z,99.90
2022-07-26T23:10:12.386Z,99.90
2022-07-26T23:12:40.012Z,99.90
2022-07-26T23:15:10.022Z,99.90
2022-07-26T23:17:37.549Z,99.90
2022-07-26T23:20:05.630Z,99.90
2022-07-26T23:22:32.255Z,99.90
2022-07-26T23:24:58.897Z,99.90
2022-07-26T23:27:25.514Z,99.90
2022-07-26T23:29:52.157Z,99.90
2022-07-26T23:32:18.794Z,99.90
2022-07-26T23:34:45.455Z,99.90
2022-07-26T23:37:12.179Z,99.90
2022-07-26T23:39:38.919Z,99.90
2022-07-26T23:42:07.099Z,99.90
2022-07-26T23:44:34.208Z,99.90
2022-07-26T23:47:01.055Z,99.90
2022-07-26T23:49:28.046Z,99.90
2022-07-26T23:51:54.771Z,99.90
2022-07-26T23:54:21.559Z,99.90
2022-07-26T23:56:48.296Z,99.90
2022-07-26T23:59:15.384Z,99.90
